sensor_id;sensor_type;location;lat;lon;timestamp;pressure;altitude;pressure_sealevel;temperature;humidity
78337;BME280;67610;51.588;7.002;2023-05-10T00:01:51;100059.78;;;15.96;72.78
78337;BME280;67610;51.588;7.002;2023-05-10T00:04:16;100065.28;;;15.94;72.96
78337;BME280;67610;51.588;7.002;2023-05-10T00:06:41;100061.41;;;15.90;72.66
78337;BME280;67610;51.588;7.002;2023-05-10T00:09:07;100062.63;;;15.88;73.30
78337;BME280;67610;51.588;7.002;2023-05-10T00:11:32;100053.44;;;15.84;73.33
78337;BME280;67610;51.588;7.002;2023-05-10T00:13:57;100062.84;;;15.86;73.52
78337;BME280;67610;51.588;7.002;2023-05-10T00:16:23;100059.59;;;15.91;73.12
78337;BME280;67610;51.588;7.002;2023-05-10T00:18:48;100063.88;;;15.92;73.06
78337;BME280;67610;51.588;7.002;2023-05-10T00:21:13;100058.34;;;15.93;73.22
78337;BME280;67610;51.588;7.002;2023-05-10T00:23:39;100063.66;;;15.93;73.16
78337;BME280;67610;51.588;7.002;2023-05-10T00:26:04;100060.44;;;15.98;72.86
78337;BME280;67610;51.588;7.002;2023-05-10T00:28:29;100057.97;;;15.96;72.88
78337;BME280;67610;51.588;7.002;2023-05-10T00:30:55;100053.47;;;15.90;72.95
78337;BME280;67610;51.588;7.002;2023-05-10T00:33:20;100060.38;;;15.85;72.95
78337;BME280;67610;51.588;7.002;2023-05-10T00:35:46;100058.53;;;15.85;72.87
78337;BME280;67610;51.588;7.002;2023-05-10T00:38:11;100062.84;;;15.86;72.94
78337;BME280;67610;51.588;7.002;2023-05-10T00:40:37;100058.75;;;15.84;72.94
78337;BME280;67610;51.588;7.002;2023-05-10T00:43:02;100052.81;;;15.82;73.01
78337;BME280;67610;51.588;7.002;2023-05-10T00:45:30;100058.31;;;15.80;73.10
78337;BME280;67610;51.588;7.002;2023-05-10T00:47:56;100065.66;;;15.78;73.26
78337;BME280;67610;51.588;7.002;2023-05-10T00:50:22;100056.88;;;15.78;73.07
78337;BME280;67610;51.588;7.002;2023-05-10T00:52:48;100055.88;;;15.79;73.08
78337;BME280;67610;51.588;7.002;2023-05-10T00:55:14;100060.34;;;15.78;73.05
78337;BME280;67610;51.588;7.002;2023-05-10T00:57:40;100066.03;;;15.75;73.12
78337;BME280;67610;51.588;7.002;2023-05-10T01:00:06;100065.63;;;15.72;73.20
78337;BME280;67610;51.588;7.002;2023-05-10T01:02:33;100061.16;;;15.72;73.28
78337;BME280;67610;51.588;7.002;2023-05-10T01:04:59;100061.94;;;15.73;73.09
78337;BME280;67610;51.588;7.002;2023-05-10T01:07:25;100068.47;;;15.70;73.15
78337;BME280;67610;51.588;7.002;2023-05-10T01:13:12;100067.84;;;15.68;72.96
78337;BME280;67610;51.588;7.002;2023-05-10T01:15:38;100068.47;;;15.70;72.79
78337;BME280;67610;51.588;7.002;2023-05-10T01:18:04;100074.38;;;15.66;72.76
78337;BME280;67610;51.588;7.002;2023-05-10T01:20:36;100069.28;;;15.64;72.86
78337;BME280;67610;51.588;7.002;2023-05-10T01:32:21;100074.34;;;15.59;72.54
78337;BME280;67610;51.588;7.002;2023-05-10T01:34:56;100084.34;;;15.57;72.63
78337;BME280;67610;51.588;7.002;2023-05-10T01:37:31;100086.75;;;15.52;72.58
78337;BME280;67610;51.588;7.002;2023-05-10T01:42:36;100087.19;;;15.56;72.66
78337;BME280;67610;51.588;7.002;2023-05-10T01:45:18;100087.56;;;15.53;72.54
78337;BME280;67610;51.588;7.002;2023-05-10T01:47:50;100085.50;;;15.48;72.40
78337;BME280;67610;51.588;7.002;2023-05-10T01:50:30;100090.00;;;15.48;72.72
78337;BME280;67610;51.588;7.002;2023-05-10T01:52:57;100087.47;;;15.39;72.61
78337;BME280;67610;51.588;7.002;2023-05-10T01:55:26;100088.31;;;15.40;72.72
78337;BME280;67610;51.588;7.002;2023-05-10T01:57:58;100082.19;;;15.39;72.97
78337;BME280;67610;51.588;7.002;2023-05-10T02:00:26;100087.28;;;15.41;72.63
78337;BME280;67610;51.588;7.002;2023-05-10T02:02:54;100090.75;;;15.42;72.56
78337;BME280;67610;51.588;7.002;2023-05-10T02:05:21;100091.75;;;15.40;72.54
78337;BME280;67610;51.588;7.002;2023-05-10T02:07:49;100094.41;;;15.40;72.39
78337;BME280;67610;51.588;7.002;2023-05-10T02:10:15;100100.53;;;15.41;72.48
78337;BME280;67610;51.588;7.002;2023-05-10T02:12:45;100099.09;;;15.38;72.47
78337;BME280;67610;51.588;7.002;2023-05-10T02:15:12;100103.97;;;15.35;72.76
78337;BME280;67610;51.588;7.002;2023-05-10T02:17:41;100105.53;;;15.23;73.24
78337;BME280;67610;51.588;7.002;2023-05-10T02:20:08;100104.09;;;15.27;73.11
78337;BME280;67610;51.588;7.002;2023-05-10T02:22:35;100103.53;;;15.31;72.96
78337;BME280;67610;51.588;7.002;2023-05-10T02:25:02;100110.28;;;15.34;72.98
78337;BME280;67610;51.588;7.002;2023-05-10T02:27:29;100110.09;;;15.35;72.73
78337;BME280;67610;51.588;7.002;2023-05-10T02:29:56;100108.25;;;15.36;72.74
78337;BME280;67610;51.588;7.002;2023-05-10T02:32:25;100106.38;;;15.30;72.96
78337;BME280;67610;51.588;7.002;2023-05-10T02:34:52;100102.09;;;15.29;72.87
78337;BME280;67610;51.588;7.002;2023-05-10T02:37:23;100106.38;;;15.30;73.16
78337;BME280;67610;51.588;7.002;2023-05-10T02:39:52;100107.00;;;15.32;72.93
78337;BME280;67610;51.588;7.002;2023-05-10T02:42:24;100111.31;;;15.33;72.89
78337;BME280;67610;51.588;7.002;2023-05-10T02:44:51;100111.91;;;15.35;72.96
78337;BME280;67610;51.588;7.002;2023-05-10T02:47:18;100102.94;;;15.36;72.96
78337;BME280;67610;51.588;7.002;2023-05-10T02:49:44;100107.84;;;15.39;72.75
78337;BME280;67610;51.588;7.002;2023-05-10T02:52:09;100105.41;;;15.37;73.01
78337;BME280;67610;51.588;7.002;2023-05-10T02:54:55;100095.81;;;15.36;73.13
78337;BME280;67610;51.588;7.002;2023-05-10T02:57:31;100098.47;;;15.36;72.76
78337;BME280;67610;51.588;7.002;2023-05-10T02:59:57;100102.94;;;15.36;72.90
78337;BME280;67610;51.588;7.002;2023-05-10T03:02:22;100094.38;;;15.34;72.81
78337;BME280;67610;51.588;7.002;2023-05-10T03:04:48;100107.81;;;15.32;72.74
78337;BME280;67610;51.588;7.002;2023-05-10T03:07:13;100105.19;;;15.32;72.75
78337;BME280;67610;51.588;7.002;2023-05-10T03:09:39;100110.66;;;15.31;72.67
78337;BME280;67610;51.588;7.002;2023-05-10T03:12:07;100107.38;;;15.29;72.81
78337;BME280;67610;51.588;7.002;2023-05-10T03:17:15;100120.44;;;15.30;72.83
78337;BME280;67610;51.588;7.002;2023-05-10T03:19:53;100118.59;;;15.31;72.93
78337;BME280;67610;51.588;7.002;2023-05-10T03:22:32;100113.28;;;15.31;73.16
78337;BME280;67610;51.588;7.002;2023-05-10T03:25:00;100118.44;;;15.32;72.84
78337;BME280;67610;51.588;7.002;2023-05-10T03:27:29;100118.59;;;15.31;72.84
78337;BME280;67610;51.588;7.002;2023-05-10T03:29:55;100127.56;;;15.30;72.96
78337;BME280;67610;51.588;7.002;2023-05-10T03:32:22;100124.72;;;15.31;73.06
78337;BME280;67610;51.588;7.002;2023-05-10T03:34:47;100133.50;;;15.32;73.04
78337;BME280;67610;51.588;7.002;2023-05-10T03:37:12;100126.38;;;15.32;73.27
78337;BME280;67610;51.588;7.002;2023-05-10T03:39:38;100121.91;;;15.33;72.92
78337;BME280;67610;51.588;7.002;2023-05-10T03:42:03;100129.44;;;15.36;72.97
78337;BME280;67610;51.588;7.002;2023-05-10T03:44:29;100130.47;;;15.35;73.07
78337;BME280;67610;51.588;7.002;2023-05-10T03:46:55;100129.44;;;15.36;73.02
78337;BME280;67610;51.588;7.002;2023-05-10T03:49:22;100133.13;;;15.35;73.06
78337;BME280;67610;51.588;7.002;2023-05-10T03:51:47;100129.44;;;15.36;73.32
78337;BME280;67610;51.588;7.002;2023-05-10T03:54:13;100134.75;;;15.36;73.35
78337;BME280;67610;51.588;7.002;2023-05-10T03:56:38;100136.19;;;15.38;73.23
78337;BME280;67610;51.588;7.002;2023-05-10T03:59:03;100145.78;;;15.39;73.32
78337;BME280;67610;51.588;7.002;2023-05-10T04:01:35;100141.31;;;15.40;73.05
78337;BME280;67610;51.588;7.002;2023-05-10T04:04:00;100142.50;;;15.37;73.17
78337;BME280;67610;51.588;7.002;2023-05-10T04:06:26;100129.44;;;15.36;73.23
78337;BME280;67610;51.588;7.002;2023-05-10T04:08:51;100138.00;;;15.38;73.39
78337;BME280;67610;51.588;7.002;2023-05-10T04:11:16;100142.50;;;15.37;73.27
78337;BME280;67610;51.588;7.002;2023-05-10T04:13:42;100142.31;;;15.39;73.51
78337;BME280;67610;51.588;7.002;2023-05-10T04:16:08;100144.34;;;15.37;73.50
78337;BME280;67610;51.588;7.002;2023-05-10T04:18:34;100140.88;;;15.36;73.37
78337;BME280;67610;51.588;7.002;2023-05-10T04:20:59;100150.63;;;15.36;73.52
78337;BME280;67610;51.588;7.002;2023-05-10T04:23:25;100149.84;;;15.35;73.28
78337;BME280;67610;51.588;7.002;2023-05-10T04:25:52;100152.50;;;15.35;73.57
78337;BME280;67610;51.588;7.002;2023-05-10T04:28:17;100150.63;;;15.36;73.54
78337;BME280;67610;51.588;7.002;2023-05-10T04:30:42;100153.13;;;15.37;73.56
78337;BME280;67610;51.588;7.002;2023-05-10T04:33:08;100156.56;;;15.38;73.52
78337;BME280;67610;51.588;7.002;2023-05-10T04:35:34;100154.94;;;15.37;73.67
78337;BME280;67610;51.588;7.002;2023-05-10T04:38:00;100159.78;;;15.33;73.75
78337;BME280;67610;51.588;7.002;2023-05-10T04:40:25;100159.16;;;15.31;73.62
78337;BME280;67610;51.588;7.002;2023-05-10T04:42:51;100153.69;;;15.33;73.67
78337;BME280;67610;51.588;7.002;2023-05-10T04:45:16;100162.84;;;15.30;73.66
78337;BME280;67610;51.588;7.002;2023-05-10T04:47:42;100163.84;;;15.29;74.05
78337;BME280;67610;51.588;7.002;2023-05-10T04:50:08;100165.91;;;15.34;73.75
78337;BME280;67610;51.588;7.002;2023-05-10T04:52:33;100169.41;;;15.34;73.82
78337;BME280;67610;51.588;7.002;2023-05-10T04:54:59;100163.28;;;15.34;73.64
78337;BME280;67610;51.588;7.002;2023-05-10T04:57:24;100170.22;;;15.35;73.88
78337;BME280;67610;51.588;7.002;2023-05-10T04:59:50;100163.88;;;15.36;73.76
78337;BME280;67610;51.588;7.002;2023-05-10T05:02:16;100161.06;;;15.37;73.73
78337;BME280;67610;51.588;7.002;2023-05-10T05:04:41;100158.63;;;15.43;73.75
78337;BME280;67610;51.588;7.002;2023-05-10T05:07:06;100169.09;;;15.44;73.84
78337;BME280;67610;51.588;7.002;2023-05-10T05:09:32;100174.81;;;15.48;73.50
78337;BME280;67610;51.588;7.002;2023-05-10T05:11:58;100168.81;;;15.39;73.43
78337;BME280;67610;51.588;7.002;2023-05-10T05:14:23;100177.56;;;15.33;73.62
78337;BME280;67610;51.588;7.002;2023-05-10T05:16:51;100180.00;;;15.34;73.88
78337;BME280;67610;51.588;7.002;2023-05-10T05:19:16;100181.25;;;15.38;73.89
78337;BME280;67610;51.588;7.002;2023-05-10T05:21:41;100179.03;;;15.42;73.92
78337;BME280;67610;51.588;7.002;2023-05-10T05:24:07;100177.75;;;15.38;74.01
78337;BME280;67610;51.588;7.002;2023-05-10T05:26:32;100190.63;;;15.41;73.92
78337;BME280;67610;51.588;7.002;2023-05-10T05:28:58;100188.81;;;15.42;73.90
78337;BME280;67610;51.588;7.002;2023-05-10T05:31:23;100191.66;;;15.40;73.98
78337;BME280;67610;51.588;7.002;2023-05-10T05:33:49;100187.78;;;15.43;73.77
78337;BME280;67610;51.588;7.002;2023-05-10T05:36:14;100187.44;;;15.46;73.81
78337;BME280;67610;51.588;7.002;2023-05-10T05:38:39;100199.94;;;15.52;73.74
78337;BME280;67610;51.588;7.002;2023-05-10T05:41:05;100194.03;;;15.56;73.44
78337;BME280;67610;51.588;7.002;2023-05-10T05:43:30;100195.66;;;15.57;73.15
78337;BME280;67610;51.588;7.002;2023-05-10T05:45:56;100205.22;;;15.52;73.34
78337;BME280;67610;51.588;7.002;2023-05-10T05:48:23;100202.38;;;15.53;73.35
78337;BME280;67610;51.588;7.002;2023-05-10T05:50:48;100204.88;;;15.61;73.40
78337;BME280;67610;51.588;7.002;2023-05-10T05:53:14;100209.16;;;15.62;73.17
78337;BME280;67610;51.588;7.002;2023-05-10T05:55:39;100208.53;;;15.60;73.18
78337;BME280;67610;51.588;7.002;2023-05-10T05:58:05;100212.63;;;15.63;73.30
78337;BME280;67610;51.588;7.002;2023-05-10T06:00:30;100212.22;;;15.66;73.41
78337;BME280;67610;51.588;7.002;2023-05-10T06:02:56;100218.59;;;15.71;73.32
78337;BME280;67610;51.588;7.002;2023-05-10T06:05:22;100219.66;;;15.77;73.23
78337;BME280;67610;51.588;7.002;2023-05-10T06:07:47;100208.06;;;15.84;72.92
78337;BME280;67610;51.588;7.002;2023-05-10T06:10:13;100216.69;;;15.93;73.22
78337;BME280;67610;51.588;7.002;2023-05-10T06:12:38;100221.66;;;16.02;73.44
78337;BME280;67610;51.588;7.002;2023-05-10T06:15:04;100222.69;;;16.15;73.12
78337;BME280;67610;51.588;7.002;2023-05-10T06:17:30;100225.81;;;16.25;72.86
78337;BME280;67610;51.588;7.002;2023-05-10T06:19:55;100229.94;;;16.34;72.61
78337;BME280;67610;51.588;7.002;2023-05-10T06:22:21;100229.34;;;16.38;72.06
78337;BME280;67610;51.588;7.002;2023-05-10T06:24:48;100231.63;;;16.48;71.85
78337;BME280;67610;51.588;7.002;2023-05-10T06:27:14;100237.19;;;16.59;71.42
78337;BME280;67610;51.588;7.002;2023-05-10T06:29:39;100232.53;;;16.74;71.24
78337;BME280;67610;51.588;7.002;2023-05-10T06:32:04;100244.03;;;16.88;71.10
78337;BME280;67610;51.588;7.002;2023-05-10T06:34:30;100241.16;;;17.03;71.02
78337;BME280;67610;51.588;7.002;2023-05-10T06:36:55;100246.31;;;17.17;70.89
78337;BME280;67610;51.588;7.002;2023-05-10T06:39:21;100252.84;;;17.34;70.81
78337;BME280;67610;51.588;7.002;2023-05-10T06:41:46;100246.72;;;17.47;69.94
78337;BME280;67610;51.588;7.002;2023-05-10T06:44:11;100251.66;;;17.57;68.76
78337;BME280;67610;51.588;7.002;2023-05-10T06:46:38;100254.28;;;17.63;69.05
78337;BME280;67610;51.588;7.002;2023-05-10T06:49:03;100260.84;;;17.67;69.00
78337;BME280;67610;51.588;7.002;2023-05-10T06:51:29;100262.88;;;17.72;68.86
78337;BME280;67610;51.588;7.002;2023-05-10T06:53:54;100264.13;;;17.76;66.93
78337;BME280;67610;51.588;7.002;2023-05-10T06:56:20;100261.25;;;17.71;67.88
78337;BME280;67610;51.588;7.002;2023-05-10T06:58:50;100260.22;;;17.72;67.81
78337;BME280;67610;51.588;7.002;2023-05-10T07:01:15;100268.41;;;17.70;66.96
78337;BME280;67610;51.588;7.002;2023-05-10T07:03:40;100267.19;;;17.73;67.74
78337;BME280;67610;51.588;7.002;2023-05-10T07:06:06;100264.72;;;17.78;67.26
78337;BME280;67610;51.588;7.002;2023-05-10T07:08:33;100264.31;;;17.87;67.34
78337;BME280;67610;51.588;7.002;2023-05-10T07:11:00;100264.25;;;18.07;67.49
78337;BME280;67610;51.588;7.002;2023-05-10T07:13:25;100261.56;;;18.13;67.55
78337;BME280;67610;51.588;7.002;2023-05-10T07:15:51;100268.91;;;18.25;67.65
78337;BME280;67610;51.588;7.002;2023-05-10T07:18:16;100265.63;;;18.29;67.08
78337;BME280;67610;51.588;7.002;2023-05-10T07:20:41;100263.31;;;18.39;67.19
78337;BME280;67610;51.588;7.002;2023-05-10T07:23:07;100268.00;;;18.50;66.89
78337;BME280;67610;51.588;7.002;2023-05-10T07:25:32;100275.75;;;18.58;66.91
78337;BME280;67610;51.588;7.002;2023-05-10T07:27:57;100275.34;;;18.61;66.38
78337;BME280;67610;51.588;7.002;2023-05-10T07:30:23;100271.47;;;18.57;66.04
78337;BME280;67610;51.588;7.002;2023-05-10T07:32:49;100273.75;;;18.54;66.21
78337;BME280;67610;51.588;7.002;2023-05-10T07:35:14;100266.38;;;18.49;66.00
78337;BME280;67610;51.588;7.002;2023-05-10T07:37:40;100270.06;;;18.48;65.84
78337;BME280;67610;51.588;7.002;2023-05-10T07:40:06;100266.34;;;18.56;65.50
78337;BME280;67610;51.588;7.002;2023-05-10T07:42:31;100265.81;;;18.78;65.18
78337;BME280;67610;51.588;7.002;2023-05-10T07:44:57;100275.31;;;18.99;64.98
78337;BME280;67610;51.588;7.002;2023-05-10T07:47:22;100272.44;;;19.32;64.84
78337;BME280;67610;51.588;7.002;2023-05-10T07:49:48;100274.59;;;19.48;64.58
78337;BME280;67610;51.588;7.002;2023-05-10T07:52:14;100279.19;;;19.66;64.53
78337;BME280;67610;51.588;7.002;2023-05-10T07:54:39;100273.66;;;19.85;63.64
78337;BME280;67610;51.588;7.002;2023-05-10T07:57:04;100275.56;;;19.96;62.71
78337;BME280;67610;51.588;7.002;2023-05-10T07:59:30;100283.31;;;20.04;62.11
78337;BME280;67610;51.588;7.002;2023-05-10T08:01:55;100286.34;;;20.08;61.32
78337;BME280;67610;51.588;7.002;2023-05-10T08:04:21;100277.75;;;20.06;60.88
78337;BME280;67610;51.588;7.002;2023-05-10T08:06:47;100289.91;;;20.02;61.24
78337;BME280;67610;51.588;7.002;2023-05-10T08:09:13;100288.06;;;20.02;60.94
78337;BME280;67610;51.588;7.002;2023-05-10T08:11:39;100289.50;;;19.98;60.42
78337;BME280;67610;51.588;7.002;2023-05-10T08:14:04;100296.41;;;19.88;60.29
78337;BME280;67610;51.588;7.002;2023-05-10T08:16:30;100302.25;;;19.78;60.16
78337;BME280;67610;51.588;7.002;2023-05-10T08:18:55;100304.22;;;19.65;60.22
78337;BME280;67610;51.588;7.002;2023-05-10T08:21:21;100307.16;;;19.57;61.01
78337;BME280;67610;51.588;7.002;2023-05-10T08:23:46;100303.03;;;19.61;60.38
78337;BME280;67610;51.588;7.002;2023-05-10T08:26:12;100310.75;;;19.69;60.37
78337;BME280;67610;51.588;7.002;2023-05-10T08:28:37;100310.91;;;19.74;60.23
78337;BME280;67610;51.588;7.002;2023-05-10T08:31:04;100305.09;;;19.83;60.52
78337;BME280;67610;51.588;7.002;2023-05-10T08:33:29;100307.25;;;19.93;60.69
78337;BME280;67610;51.588;7.002;2023-05-10T08:35:55;100310.50;;;19.95;60.34
78337;BME280;67610;51.588;7.002;2023-05-10T08:38:20;100314.78;;;20.20;60.16
78337;BME280;67610;51.588;7.002;2023-05-10T08:40:48;100319.53;;;20.73;59.15
78337;BME280;67610;51.588;7.002;2023-05-10T08:43:14;100317.28;;;20.88;57.44
78337;BME280;67610;51.588;7.002;2023-05-10T08:45:44;100318.13;;;21.18;57.26
78337;BME280;67610;51.588;7.002;2023-05-10T08:48:14;100323.44;;;21.60;56.58
78337;BME280;67610;51.588;7.002;2023-05-10T08:50:40;100317.09;;;21.84;56.18
78337;BME280;67610;51.588;7.002;2023-05-10T08:53:11;100324.31;;;22.06;54.33
78337;BME280;67610;51.588;7.002;2023-05-10T08:55:37;100334.50;;;22.67;54.03
78337;BME280;67610;51.588;7.002;2023-05-10T08:58:04;100338.91;;;23.02;52.82
78337;BME280;67610;51.588;7.002;2023-05-10T09:00:30;100333.22;;;23.26;52.03
78337;BME280;67610;51.588;7.002;2023-05-10T09:02:57;100331.97;;;23.79;50.57
78337;BME280;67610;51.588;7.002;2023-05-10T09:05:23;100335.19;;;24.31;49.73
78337;BME280;67610;51.588;7.002;2023-05-10T09:07:48;100332.13;;;24.44;48.77
78337;BME280;67610;51.588;7.002;2023-05-10T09:10:14;100331.88;;;24.67;46.66
78337;BME280;67610;51.588;7.002;2023-05-10T09:12:41;100336.69;;;24.81;45.32
78337;BME280;67610;51.588;7.002;2023-05-10T09:15:07;100340.28;;;24.92;46.06
78337;BME280;67610;51.588;7.002;2023-05-10T09:17:34;100332.22;;;24.92;45.42
78337;BME280;67610;51.588;7.002;2023-05-10T09:20:01;100341.56;;;24.68;45.88
78337;BME280;67610;51.588;7.002;2023-05-10T09:22:27;100348.97;;;24.56;45.93
78337;BME280;67610;51.588;7.002;2023-05-10T09:25:15;100349.22;;;24.16;46.85
78337;BME280;67610;51.588;7.002;2023-05-10T09:27:44;100355.72;;;24.03;48.29
78337;BME280;67610;51.588;7.002;2023-05-10T09:30:14;100346.78;;;23.81;48.58
78337;BME280;67610;51.588;7.002;2023-05-10T09:32:45;100355.38;;;23.50;49.08
78337;BME280;67610;51.588;7.002;2023-05-10T09:35:17;100366.06;;;23.17;49.09
78337;BME280;67610;51.588;7.002;2023-05-10T09:37:46;100369.19;;;22.85;49.76
78337;BME280;67610;51.588;7.002;2023-05-10T09:40:18;100360.97;;;22.52;50.70
78337;BME280;67610;51.588;7.002;2023-05-10T09:42:58;100359.00;;;22.36;51.81
78337;BME280;67610;51.588;7.002;2023-05-10T09:45:26;100364.97;;;22.27;51.87
78337;BME280;67610;51.588;7.002;2023-05-10T09:47:52;100364.25;;;21.96;52.51
78337;BME280;67610;51.588;7.002;2023-05-10T09:50:18;100363.00;;;21.99;52.85
78337;BME280;67610;51.588;7.002;2023-05-10T09:52:58;100371.13;;;21.92;51.90
78337;BME280;67610;51.588;7.002;2023-05-10T09:55:41;100374.22;;;21.78;52.62
78337;BME280;67610;51.588;7.002;2023-05-10T09:58:10;100368.59;;;21.68;52.65
78337;BME280;67610;51.588;7.002;2023-05-10T10:00:37;100377.94;;;21.35;53.00
78337;BME280;67610;51.588;7.002;2023-05-10T10:03:04;100373.44;;;21.06;54.30
78337;BME280;67610;51.588;7.002;2023-05-10T10:05:34;100371.50;;;21.13;53.89
78337;BME280;67610;51.588;7.002;2023-05-10T10:08:04;100369.78;;;21.30;53.73
78337;BME280;67610;51.588;7.002;2023-05-10T10:10:31;100368.91;;;21.36;53.16
78337;BME280;67610;51.588;7.002;2023-05-10T10:12:57;100379.81;;;21.35;53.43
78337;BME280;67610;51.588;7.002;2023-05-10T10:15:23;100382.13;;;21.31;53.36
78337;BME280;67610;51.588;7.002;2023-05-10T10:17:50;100377.56;;;21.20;52.97
78337;BME280;67610;51.588;7.002;2023-05-10T10:20:17;100368.72;;;21.02;53.22
78337;BME280;67610;51.588;7.002;2023-05-10T10:22:43;100378.47;;;20.96;53.38
78337;BME280;67610;51.588;7.002;2023-05-10T10:25:13;100380.13;;;20.79;53.41
78337;BME280;67610;51.588;7.002;2023-05-10T10:30:42;100390.59;;;20.62;51.35
78337;BME280;67610;51.588;7.002;2023-05-10T10:33:51;100393.19;;;20.33;52.60
78337;BME280;67610;51.588;7.002;2023-05-10T10:36:20;100399.78;;;20.48;53.50
78337;BME280;67610;51.588;7.002;2023-05-10T10:41:28;100400.00;;;20.47;51.84
78337;BME280;67610;51.588;7.002;2023-05-10T10:44:22;100399.88;;;20.42;53.28
78337;BME280;67610;51.588;7.002;2023-05-10T10:54:53;100412.59;;;20.15;54.22
78337;BME280;67610;51.588;7.002;2023-05-10T10:57:22;100409.19;;;19.83;54.50
78337;BME280;67610;51.588;7.002;2023-05-10T10:59:47;100414.47;;;19.90;54.16
78337;BME280;67610;51.588;7.002;2023-05-10T11:02:32;100410.06;;;19.77;54.26
78337;BME280;67610;51.588;7.002;2023-05-10T11:04:58;100407.00;;;19.98;54.29
78337;BME280;67610;51.588;7.002;2023-05-10T11:07:23;100410.53;;;20.17;54.93
78337;BME280;67610;51.588;7.002;2023-05-10T11:09:49;100419.16;;;20.62;53.81
78337;BME280;67610;51.588;7.002;2023-05-10T11:12:15;100416.81;;;20.90;52.85
78337;BME280;67610;51.588;7.002;2023-05-10T11:14:40;100419.16;;;21.16;51.99
78337;BME280;67610;51.588;7.002;2023-05-10T11:17:27;100416.19;;;21.24;51.87
78337;BME280;67610;51.588;7.002;2023-05-10T11:20:09;100415.91;;;21.44;51.48
78337;BME280;67610;51.588;7.002;2023-05-10T11:22:54;100417.94;;;21.60;50.96
78337;BME280;67610;51.588;7.002;2023-05-10T11:25:23;100418.56;;;21.74;51.06
78337;BME280;67610;51.588;7.002;2023-05-10T11:27:51;100417.84;;;21.67;50.09
78337;BME280;67610;51.588;7.002;2023-05-10T11:30:17;100426.69;;;21.67;50.05
78337;BME280;67610;51.588;7.002;2023-05-10T11:32:42;100428.31;;;21.68;50.13
78337;BME280;67610;51.588;7.002;2023-05-10T11:35:08;100431.94;;;21.62;50.07
78337;BME280;67610;51.588;7.002;2023-05-10T11:37:34;100426.34;;;21.64;50.43
78337;BME280;67610;51.588;7.002;2023-05-10T11:40:00;100440.06;;;21.67;49.88
78337;BME280;67610;51.588;7.002;2023-05-10T11:42:27;100440.19;;;21.72;50.02
78337;BME280;67610;51.588;7.002;2023-05-10T11:44:53;100435.81;;;21.78;50.42
78337;BME280;67610;51.588;7.002;2023-05-10T11:47:18;100433.13;;;21.78;50.55
78337;BME280;67610;51.588;7.002;2023-05-10T11:49:44;100438.25;;;21.79;50.17
78337;BME280;67610;51.588;7.002;2023-05-10T11:52:10;100442.06;;;21.72;50.11
78337;BME280;67610;51.588;7.002;2023-05-10T11:54:36;100444.06;;;21.46;50.55
78337;BME280;67610;51.588;7.002;2023-05-10T11:57:02;100453.25;;;21.39;51.58
78337;BME280;67610;51.588;7.002;2023-05-10T11:59:28;100447.38;;;21.30;51.87
78337;BME280;67610;51.588;7.002;2023-05-10T12:01:53;100448.88;;;21.26;52.36
78337;BME280;67610;51.588;7.002;2023-05-10T12:04:19;100446.72;;;21.17;52.24
78337;BME280;67610;51.588;7.002;2023-05-10T12:06:45;100440.78;;;21.15;51.99
78337;BME280;67610;51.588;7.002;2023-05-10T12:09:11;100455.44;;;21.12;52.00
78337;BME280;67610;51.588;7.002;2023-05-10T12:11:40;100450.53;;;21.09;51.52
78337;BME280;67610;51.588;7.002;2023-05-10T12:14:07;100447.84;;;21.09;51.29
78337;BME280;67610;51.588;7.002;2023-05-10T12:16:33;100450.75;;;21.08;51.57
78337;BME280;67610;51.588;7.002;2023-05-10T12:19:00;100450.75;;;21.08;51.82
78337;BME280;67610;51.588;7.002;2023-05-10T12:21:26;100460.03;;;21.05;51.70
78337;BME280;67610;51.588;7.002;2023-05-10T12:23:54;100454.06;;;21.03;52.01
78337;BME280;67610;51.588;7.002;2023-05-10T12:26:24;100455.22;;;21.14;51.34
78337;BME280;67610;51.588;7.002;2023-05-10T12:28:52;100456.75;;;21.21;51.18
78337;BME280;67610;51.588;7.002;2023-05-10T12:31:18;100452.88;;;21.35;50.98
78337;BME280;67610;51.588;7.002;2023-05-10T12:33:44;100454.34;;;21.49;50.21
78337;BME280;67610;51.588;7.002;2023-05-10T12:36:13;100451.06;;;21.47;50.87
78337;BME280;67610;51.588;7.002;2023-05-10T12:38:44;100448.53;;;21.52;51.26
78337;BME280;67610;51.588;7.002;2023-05-10T12:41:16;100451.00;;;21.66;51.17
78337;BME280;67610;51.588;7.002;2023-05-10T12:43:42;100456.84;;;21.74;49.43
78337;BME280;67610;51.588;7.002;2023-05-10T12:46:09;100442.88;;;21.72;49.08
78337;BME280;67610;51.588;7.002;2023-05-10T12:48:36;100447.09;;;21.80;49.75
78337;BME280;67610;51.588;7.002;2023-05-10T12:51:02;100446.78;;;21.88;49.02
78337;BME280;67610;51.588;7.002;2023-05-10T12:53:28;100451.25;;;21.94;48.98
78337;BME280;67610;51.588;7.002;2023-05-10T12:55:54;100456.72;;;21.99;47.99
78337;BME280;67610;51.588;7.002;2023-05-10T12:58:20;100450.56;;;22.10;47.88
78337;BME280;67610;51.588;7.002;2023-05-10T13:00:45;100455.78;;;22.05;47.76
78337;BME280;67610;51.588;7.002;2023-05-10T13:03:11;100465.25;;;22.07;47.30
78337;BME280;67610;51.588;7.002;2023-05-10T13:05:36;100458.22;;;21.95;47.03
78337;BME280;67610;51.588;7.002;2023-05-10T13:08:01;100455.78;;;21.93;47.19
78337;BME280;67610;51.588;7.002;2023-05-10T13:10:29;100457.41;;;21.94;46.44
78337;BME280;67610;51.588;7.002;2023-05-10T13:12:55;100462.88;;;21.99;47.29
78337;BME280;67610;51.588;7.002;2023-05-10T13:15:20;100461.63;;;22.13;47.01
78337;BME280;67610;51.588;7.002;2023-05-10T13:17:45;100457.34;;;22.24;47.19
78337;BME280;67610;51.588;7.002;2023-05-10T13:20:11;100457.81;;;22.44;45.76
78337;BME280;67610;51.588;7.002;2023-05-10T13:22:36;100462.84;;;22.52;46.31